createdAt,value
2023-05-10T00:00:19.395Z,2.50
2023-05-10T00:02:24.338Z,2.20
2023-05-10T00:04:29.155Z,2.30
2023-05-10T00:06:33.957Z,2.70
2023-05-10T00:08:38.730Z,2.50
2023-05-10T00:10:43.496Z,2.40
2023-05-10T00:12:48.220Z,2.50
2023-05-10T00:14:52.797Z,2.60
2023-05-10T00:16:57.431Z,2.70
2023-05-10T00:19:02.047Z,2.50
2023-05-10T00:21:07.336Z,2.70
2023-05-10T00:23:11.975Z,2.60
2023-05-10T00:25:16.790Z,2.70
2023-05-10T00:27:21.408Z,2.60
2023-05-10T00:29:26.304Z,2.50
2023-05-10T00:31:31.749Z,2.40
2023-05-10T00:33:36.463Z,2.70
2023-05-10T00:35:41.075Z,2.50
2023-05-10T00:37:45.723Z,2.40
2023-05-10T00:39:50.534Z,2.70
2023-05-10T00:41:55.184Z,2.50
2023-05-10T00:44:00.269Z,2.60
2023-05-10T00:46:05.634Z,2.40
2023-05-10T00:48:11.117Z,2.50
2023-05-10T00:50:16.555Z,2.20
2023-05-10T00:52:21.841Z,2.50
2023-05-10T00:54:26.719Z,2.10
2023-05-10T00:56:31.535Z,2.10
2023-05-10T00:58:36.311Z,2.40
2023-05-10T01:00:44.320Z,2.30
2023-05-10T01:05:33.403Z,2.20
2023-05-10T01:07:38.358Z,2.60
2023-05-10T01:09:43.409Z,2.60
2023-05-10T01:11:50.513Z,2.60
2023-05-10T01:13:58.937Z,2.60
2023-05-10T01:16:04.408Z,2.50
2023-05-10T01:18:11.702Z,2.50
2023-05-10T01:20:17.242Z,2.70
2023-05-10T01:22:58.757Z,2.70
2023-05-10T01:25:33.002Z,2.60
2023-05-10T01:27:57.294Z,2.50
2023-05-10T01:30:24.553Z,2.40
2023-05-10T01:32:37.710Z,2.60
2023-05-10T01:34:49.089Z,2.80
2023-05-10T01:37:01.481Z,2.70
2023-05-10T01:39:16.690Z,2.40
2023-05-10T01:41:26.346Z,2.60
2023-05-10T01:43:38.206Z,2.50
2023-05-10T01:45:53.083Z,2.40
2023-05-10T01:48:06.626Z,2.70
2023-05-10T01:50:17.053Z,2.70
2023-05-10T01:52:27.986Z,2.50
2023-05-10T01:54:34.345Z,2.60
2023-05-10T01:56:41.302Z,2.60
2023-05-10T01:58:49.638Z,2.30
2023-05-10T02:00:55.348Z,2.50
2023-05-10T02:03:01.667Z,2.80
2023-05-10T02:05:09.138Z,2.50
2023-05-10T02:07:15.543Z,2.80
2023-05-10T02:09:21.909Z,2.60
2023-05-10T02:11:28.498Z,2.70
2023-05-10T02:13:37.064Z,2.90
2023-05-10T02:15:44.020Z,2.80
2023-05-10T02:17:50.481Z,2.60
2023-05-10T02:19:57.601Z,2.90
2023-05-10T02:22:04.196Z,3.00
2023-05-10T02:24:12.442Z,2.80
2023-05-10T02:26:19.145Z,3.00
2023-05-10T02:28:25.284Z,2.50
2023-05-10T02:30:32.596Z,2.80
2023-05-10T10:36:04.012Z,1.90
2023-05-10T10:38:14.984Z,2.00
2023-05-10T10:40:34.984Z,1.90
2023-05-10T10:42:49.754Z,1.70
2023-05-10T10:45:15.139Z,1.70
2023-05-10T10:47:30.150Z,1.90
2023-05-10T10:49:38.831Z,1.70
2023-05-10T10:52:16.066Z,1.90
2023-05-10T10:54:29.447Z,1.90
2023-05-10T10:56:36.394Z,1.80
2023-05-10T10:58:50.996Z,1.50
2023-05-10T11:01:12.720Z,1.90
2023-05-10T11:03:17.911Z,1.90
2023-05-10T11:05:40.288Z,1.90
2023-05-10T11:07:56.093Z,1.80
2023-05-10T11:10:07.425Z,1.90
2023-05-10T11:12:12.500Z,1.90
2023-05-10T11:14:22.939Z,2.10
2023-05-10T11:16:28.239Z,2.00
2023-05-10T11:18:33.398Z,1.90
2023-05-10T11:20:42.800Z,2.00
2023-05-10T11:22:54.302Z,2.00
2023-05-10T11:25:02.442Z,1.90
2023-05-10T11:27:08.167Z,1.80
2023-05-10T11:29:15.040Z,1.70
2023-05-10T11:31:20.985Z,1.90
2023-05-10T11:33:26.099Z,1.60
2023-05-10T11:35:31.620Z,1.70
2023-05-10T11:37:36.764Z,1.80
2023-05-10T11:39:48.174Z,1.50
2023-05-10T11:41:53.262Z,1.80
2023-05-10T11:43:59.121Z,1.80
2023-05-10T11:46:04.556Z,1.90
2023-05-10T11:48:10.207Z,1.80
2023-05-10T11:50:15.585Z,1.50
2023-05-10T11:52:21.182Z,2.10
2023-05-10T11:54:26.031Z,1.70
2023-05-10T11:56:33.394Z,1.80
2023-05-10T11:58:39.328Z,2.10
2023-05-10T12:00:44.365Z,2.00
2023-05-10T12:02:49.461Z,2.40
2023-05-10T12:04:56.129Z,2.40
2023-05-10T12:07:01.264Z,1.80
2023-05-10T12:09:08.530Z,1.80
2023-05-10T12:11:14.117Z,2.10
2023-05-10T12:13:20.479Z,1.80
2023-05-10T12:15:26.455Z,1.80
2023-05-10T12:17:31.855Z,2.00
2023-05-10T12:19:42.212Z,2.10
2023-05-10T12:21:47.162Z,1.90
2023-05-10T12:23:53.411Z,1.70
2023-05-10T12:26:05.052Z,1.60
2023-05-10T12:28:10.690Z,1.50
2023-05-10T12:30:22.063Z,1.70
2023-05-10T12:32:40.287Z,1.50
2023-05-10T12:34:47.633Z,2.00
2023-05-10T12:36:54.835Z,1.60
2023-05-10T12:39:06.088Z,1.80
2023-05-10T12:41:12.154Z,2.20
2023-05-10T12:43:17.069Z,1.60
2023-05-10T12:45:22.709Z,1.40
2023-05-10T12:47:27.576Z,2.30
2023-05-10T12:49:32.362Z,1.70
2023-05-10T12:51:37.356Z,2.10
2023-05-10T12:53:45.047Z,1.80
2023-05-10T12:55:50.960Z,2.20
2023-05-10T12:57:55.759Z,2.10
2023-05-10T13:00:00.690Z,2.60
2023-05-10T13:02:05.503Z,1.90
2023-05-10T13:04:10.457Z,2.10
2023-05-10T13:06:15.811Z,2.10
2023-05-10T13:08:20.635Z,2.50
2023-05-10T13:10:25.447Z,2.50
2023-05-10T13:12:30.343Z,2.10
2023-05-10T13:14:35.283Z,2.40
2023-05-10T13:16:41.492Z,3.00
2023-05-10T13:18:46.434Z,2.40
2023-05-10T13:20:51.252Z,2.80
2023-05-10T13:22:56.123Z,2.60
2023-05-10T13:25:01.272Z,2.60
2023-05-10T13:27:06.226Z,3.20
2023-05-10T13:29:11.082Z,2.40
2023-05-10T13:31:16.068Z,2.40
2023-05-10T13:33:21.113Z,2.40
2023-05-10T13:35:26.541Z,2.20
2023-05-10T13:37:31.379Z,2.00
2023-05-10T13:39:36.333Z,2.20
2023-05-10T13:41:41.460Z,2.50
2023-05-10T13:43:46.380Z,2.40
2023-05-10T13:45:51.242Z,2.40
2023-05-10T13:47:56.269Z,2.20
2023-05-10T13:50:01.256Z,2.60
2023-05-10T13:52:06.450Z,2.20
2023-05-10T13:54:13.427Z,2.40
2023-05-10T13:56:18.595Z,2.50
2023-05-10T13:58:23.620Z,2.20
2023-05-10T14:00:29.111Z,2.50
2023-05-10T14:02:34.193Z,2.50
2023-05-10T14:04:39.097Z,2.20
2023-05-10T14:06:44.066Z,2.50
2023-05-10T14:08:49.084Z,2.30
2023-05-10T14:10:53.915Z,2.50
2023-05-10T14:12:58.804Z,2.50
2023-05-10T14:15:03.925Z,2.10
2023-05-10T14:17:10.701Z,2.10
2023-05-10T14:19:17.035Z,2.60
2023-05-10T14:21:21.760Z,2.30
2023-05-10T14:23:26.682Z,2.50
2023-05-10T14:25:34.702Z,2.50
2023-05-10T14:27:39.659Z,2.70
2023-05-10T14:29:44.682Z,2.50
2023-05-10T14:31:49.679Z,2.50
2023-05-10T14:33:54.494Z,2.20
2023-05-10T14:35:59.556Z,2.40
2023-05-10T14:38:04.599Z,2.50
2023-05-10T14:40:11.898Z,2.30
2023-05-10T14:42:16.682Z,2.10
2023-05-10T14:44:21.676Z,2.30
2023-05-10T14:46:26.679Z,2.00
2023-05-10T14:48:31.734Z,2.40
2023-05-10T14:50:37.494Z,2.40
2023-05-10T14:52:42.624Z,2.50
2023-05-10T14:54:47.476Z,2.70
2023-05-10T14:56:52.525Z,2.30
2023-05-10T14:58:57.370Z,2.00
2023-05-10T15:01:02.926Z,2.00
2023-05-10T15:03:08.469Z,1.90
2023-05-10T15:05:13.817Z,2.40
2023-05-10T15:07:19.453Z,2.00
2023-05-10T15:09:24.341Z,2.20
2023-05-10T15:11:29.345Z,2.20
2023-05-10T15:13:34.142Z,2.00
2023-05-10T15:15:39.142Z,2.30
2023-05-10T15:17:44.104Z,2.10
2023-05-10T15:19:48.905Z,1.90
2023-05-10T15:21:53.823Z,2.30
2023-05-10T15:23:58.873Z,2.30
2023-05-10T15:26:04.039Z,1.90
2023-05-10T15:28:09.108Z,1.90
2023-05-10T15:30:15.178Z,1.90
2023-05-10T15:32:20.139Z,1.80
2023-05-10T15:34:29.611Z,1.90
2023-05-10T15:36:35.471Z,1.90
2023-05-10T15:38:40.516Z,1.90
2023-05-10T15:40:45.424Z,1.90
2023-05-10T15:42:50.512Z,1.80
2023-05-10T15:44:55.420Z,1.60
2023-05-10T15:47:00.449Z,1.60
2023-05-10T15:49:05.568Z,1.70
2023-05-10T15:51:10.712Z,2.00
2023-05-10T15:53:15.978Z,1.90
2023-05-10T15:55:21.234Z,1.80
2023-05-10T15:57:26.241Z,1.90
2023-05-10T15:59:31.329Z,1.90
2023-05-10T16:01:36.635Z,1.60
2023-05-10T16:03:41.754Z,1.60
2023-05-10T16:05:46.798Z,1.80
2023-05-10T16:07:51.736Z,1.60
2023-05-10T16:09:56.800Z,2.00
2023-05-10T16:12:01.714Z,1.90
2023-05-10T16:14:07.367Z,1.80
2023-05-10T16:16:12.773Z,1.90
2023-05-10T16:18:18.140Z,2.00
2023-05-10T16:20:23.594Z,2.40
2023-05-10T16:22:28.878Z,2.00
2023-05-10T16:24:34.205Z,2.30
2023-05-10T16:26:39.264Z,1.80
2023-05-10T16:28:44.518Z,2.20
2023-05-10T16:30:49.563Z,2.30
2023-05-10T16:32:55.330Z,2.00
2023-05-10T16:35:00.732Z,2.00
2023-05-10T16:37:05.857Z,2.10
2023-05-10T16:39:10.834Z,1.80
2023-05-10T16:41:15.705Z,2.10
2023-05-10T16:43:20.773Z,1.80
2023-05-10T16:45:25.855Z,2.00
2023-05-10T16:47:30.829Z,1.80
2023-05-10T16:49:37.307Z,2.10
2023-05-10T16:51:42.390Z,2.10
2023-05-10T16:53:47.755Z,2.00
2023-05-10T16:55:52.754Z,2.00
2023-05-10T16:57:57.814Z,2.00
2023-05-10T17:00:02.755Z,2.10
2023-05-10T17:02:07.789Z,2.30
2023-05-10T17:04:13.214Z,2.10
2023-05-10T17:06:18.352Z,2.30
2023-05-10T17:08:23.424Z,2.00
2023-05-10T17:10:28.482Z,2.20
2023-05-10T17:12:33.370Z,2.20
2023-05-10T17:14:38.523Z,2.00
2023-05-10T17:16:43.786Z,2.00
2023-05-10T17:18:48.995Z,1.90
2023-05-10T17:20:54.056Z,2.10
2023-05-10T17:22:59.207Z,1.90
2023-05-10T17:25:04.357Z,1.90
2023-05-10T17:27:09.451Z,2.00
2023-05-10T17:29:14.360Z,2.40
2023-05-10T17:31:19.370Z,2.10
2023-05-10T17:33:24.403Z,2.20
2023-05-10T17:35:29.465Z,2.30
2023-05-10T17:37:34.551Z,2.00
2023-05-10T17:39:40.003Z,2.10
2023-05-10T17:41:44.942Z,2.40
2023-05-10T17:43:49.916Z,2.20
2023-05-10T17:45:54.722Z,2.00
2023-05-10T17:47:59.704Z,2.10
2023-05-10T17:50:05.247Z,1.90
2023-05-10T17:52:10.095Z,2.10
2023-05-10T17:54:15.158Z,2.30
2023-05-10T17:56:20.178Z,2.10
2023-05-10T17:58:25.227Z,2.30
2023-05-10T18:00:30.016Z,2.30
2023-05-10T18:02:35.040Z,2.70
2023-05-10T18:04:41.153Z,2.20
2023-05-10T18:06:46.134Z,2.20
2023-05-10T18:08:51.049Z,2.30
2023-05-10T18:10:55.799Z,2.50
2023-05-10T18:13:00.787Z,2.50
2023-05-10T18:15:06.500Z,2.60
2023-05-10T18:17:11.425Z,2.50
2023-05-10T18:19:16.573Z,2.50
2023-05-10T18:21:21.520Z,2.70
2023-05-10T18:23:26.577Z,2.90
2023-05-10T18:25:31.919Z,2.70
2023-05-10T18:27:37.335Z,2.40
2023-05-10T18:29:42.220Z,2.50
2023-05-10T18:31:47.278Z,2.30
2023-05-10T18:33:52.637Z,2.50
2023-05-10T18:35:57.642Z,2.90
2023-05-10T18:38:02.836Z,2.50
2023-05-10T18:40:09.548Z,2.40
2023-05-10T18:42:14.730Z,2.30
2023-05-10T18:44:19.879Z,2.40
2023-05-10T18:46:25.388Z,2.50
2023-05-10T18:48:31.252Z,2.60
2023-05-10T18:50:36.200Z,2.70
2023-05-10T18:52:41.219Z,2.40
2023-05-10T18:54:46.838Z,2.60
2023-05-10T18:56:52.308Z,2.90
2023-05-10T18:58:57.578Z,2.70
2023-05-10T19:01:02.980Z,3.20
2023-05-10T19:03:08.596Z,3.20
2023-05-10T19:05:14.087Z,3.40
2023-05-10T19:07:21.816Z,3.10
2023-05-10T19:09:29.250Z,2.40
2023-05-10T19:11:35.113Z,2.60
2023-05-10T19:13:40.033Z,2.50
2023-05-10T19:15:46.316Z,2.60
2023-05-10T19:17:55.877Z,2.30
2023-05-10T19:20:02.712Z,2.10
2023-05-10T19:22:10.706Z,2.20
2023-05-10T19:24:16.496Z,2.30
2023-05-10T19:26:24.528Z,2.30
2023-05-10T19:28:30.965Z,2.40
2023-05-10T19:30:36.437Z,2.40
2023-05-10T19:32:41.412Z,2.60
2023-05-10T19:34:46.311Z,2.70
2023-05-10T19:36:51.930Z,2.90
2023-05-10T19:38:58.439Z,2.70
2023-05-10T19:41:04.788Z,2.70
2023-05-10T19:43:10.658Z,2.70
2023-05-10T19:45:17.200Z,3.00
2023-05-10T19:47:22.802Z,3.00
2023-05-10T19:49:28.370Z,3.00
2023-05-10T19:51:33.319Z,2.60
2023-05-10T19:53:38.571Z,2.60
2023-05-10T19:55:43.457Z,2.70
2023-05-10T19:57:48.366Z,2.70
2023-05-10T19:59:54.058Z,2.80
2023-05-10T20:01:59.163Z,2.50
2023-05-10T20:04:04.664Z,2.40
2023-05-10T20:06:10.023Z,2.30
2023-05-10T20:08:15.016Z,2.70
2023-05-10T20:10:21.554Z,2.40
2023-05-10T20:12:26.589Z,2.40
2023-05-10T20:14:32.057Z,2.60
2023-05-10T20:16:37.553Z,2.60
2023-05-10T20:18:42.761Z,2.50
2023-05-10T20:20:48.132Z,2.50
2023-05-10T20:22:53.694Z,2.30
2023-05-10T20:25:00.065Z,2.20
2023-05-10T20:27:05.232Z,2.00
2023-05-10T20:29:10.383Z,2.90
2023-05-10T20:31:15.481Z,2.40
2023-05-10T20:33:21.098Z,2.80
2023-05-10T20:35:26.082Z,2.30
2023-05-10T20:37:30.996Z,2.10
2023-05-10T20:39:35.879Z,2.30
2023-05-10T20:41:41.041Z,2.20
2023-05-10T20:43:45.983Z,2.40
2023-05-10T20:45:51.043Z,2.20
2023-05-10T20:47:56.060Z,2.30
2023-05-10T20:50:00.989Z,2.60
2023-05-10T20:52:06.147Z,2.60
2023-05-10T20:54:11.195Z,2.60
2023-05-10T20:56:16.191Z,2.60
2023-05-10T20:58:21.062Z,2.50
2023-05-10T21:00:26.419Z,2.30
2023-05-10T21:02:31.366Z,2.50
2023-05-10T21:04:36.580Z,2.50
2023-05-10T21:06:41.714Z,2.20
2023-05-10T21:08:46.480Z,2.40
2023-05-10T21:10:51.577Z,2.60
2023-05-10T21:12:56.656Z,2.30
2023-05-10T21:15:01.515Z,2.40
2023-05-10T21:17:06.312Z,2.40
2023-05-10T21:19:11.435Z,2.20
2023-05-10T21:21:16.366Z,2.40
2023-05-10T21:23:21.499Z,2.20
2023-05-10T21:25:26.560Z,2.40
2023-05-10T21:27:31.988Z,2.50
2023-05-10T21:29:36.837Z,2.80
2023-05-10T21:31:42.133Z,2.60
2023-05-10T21:33:47.348Z,2.90
2023-05-10T21:35:53.575Z,2.60
2023-05-10T21:38:01.654Z,2.40
2023-05-10T21:40:08.140Z,2.70
2023-05-10T21:42:13.232Z,2.70
2023-05-10T21:44:18.373Z,2.40
2023-05-10T21:46:23.232Z,2.50
2023-05-10T21:48:28.190Z,2.40
2023-05-10T21:50:33.131Z,2.60
2023-05-10T21:52:38.264Z,2.50
2023-05-10T21:54:43.138Z,2.80
2023-05-10T21:56:48.126Z,2.60
2023-05-10T21:58:53.305Z,2.60
2023-05-10T22:00:58.301Z,2.70
2023-05-10T22:03:03.207Z,2.90
2023-05-10T22:05:09.046Z,3.00
2023-05-10T22:07:14.116Z,2.90
2023-05-10T22:09:20.039Z,2.60
2023-05-10T22:11:24.947Z,2.70
2023-05-10T22:13:29.754Z,2.80
2023-05-10T22:15:36.359Z,2.60
2023-05-10T22:17:41.765Z,2.80
2023-05-10T22:19:46.610Z,3.00
2023-05-10T22:21:52.193Z,2.70
2023-05-10T22:23:57.085Z,2.70
2023-05-10T22:26:02.988Z,2.50
2023-05-10T22:28:07.934Z,2.70
2023-05-10T22:30:13.582Z,3.00
2023-05-10T22:32:18.644Z,2.60
2023-05-10T22:34:23.714Z,2.70
2023-05-10T22:36:28.660Z,2.70
2023-05-10T22:38:33.889Z,2.40
2023-05-10T22:40:38.873Z,2.80
2023-05-10T22:42:43.913Z,2.70
2023-05-10T22:44:48.968Z,2.60
2023-05-10T22:46:53.987Z,2.70
2023-05-10T22:48:58.865Z,2.50
2023-05-10T22:51:03.916Z,2.50
2023-05-10T22:53:08.773Z,2.40
2023-05-10T22:55:13.714Z,2.50
2023-05-10T22:57:18.739Z,2.40
2023-05-10T22:59:26.991Z,2.40
2023-05-10T23:01:32.030Z,2.40
2023-05-10T23:03:36.977Z,2.50
2023-05-10T23:05:41.943Z,2.50
2023-05-10T23:07:46.772Z,2.40
2023-05-10T23:09:51.658Z,2.40
2023-05-10T23:11:56.444Z,2.40
2023-05-10T23:14:01.837Z,2.20
2023-05-10T23:16:12.845Z,2.30
2023-05-10T23:18:26.778Z,2.30
2023-05-10T23:20:31.707Z,2.30
2023-05-10T23:22:36.678Z,2.40
2023-05-10T23:24:41.492Z,2.30
2023-05-10T23:26:46.463Z,2.40
2023-05-10T23:28:51.377Z,2.40
2023-05-10T23:30:57.990Z,2.40
2023-05-10T23:33:02.863Z,2.40
2023-05-10T23:35:09.347Z,2.50
2023-05-10T23:37:14.463Z,2.50
2023-05-10T23:39:19.446Z,2.40
2023-05-10T23:41:24.368Z,2.20
2023-05-10T23:43:29.135Z,2.20
2023-05-10T23:45:34.235Z,2.30
2023-05-10T23:47:39.250Z,2.50
2023-05-10T23:49:44.194Z,2.50
2023-05-10T23:51:49.220Z,2.40
2023-05-10T23:53:54.114Z,2.30
2023-05-10T23:55:59.059Z,2.60
2023-05-10T23:58:03.863Z,2.50
